createdAt,value
2018-01-04T00:01:18.000Z,988.612
2018-01-04T00:11:18.000Z,988.472
2018-01-04T00:21:18.000Z,988.414
2018-01-04T00:31:18.000Z,988.49
2018-01-04T00:41:18.000Z,988.623
2018-01-04T00:51:18.000Z,988.549
2018-01-04T01:01:19.000Z,988.609
2018-01-04T01:11:18.000Z,988.753
2018-01-04T01:21:18.000Z,988.728
2018-01-04T01:31:18.000Z,988.673
2018-01-04T01:41:18.000Z,988.738
2018-01-04T01:51:18.000Z,988.753
2018-01-04T02:01:18.000Z,988.948
2018-01-04T02:11:18.000Z,988.991
2018-01-04T02:21:18.000Z,989.161
2018-01-04T02:31:18.000Z,989.231
2018-01-04T02:41:18.000Z,989.11
2018-01-04T02:51:19.000Z,989.146
2018-01-04T03:01:18.000Z,989.122
2018-01-04T03:11:18.000Z,989.169
2018-01-04T03:21:18.000Z,989.057
2018-01-04T03:31:18.000Z,989.177
2018-01-04T03:41:18.000Z,989.204
2018-01-04T03:51:18.000Z,989.154
2018-01-04T04:01:18.000Z,989.082
2018-01-04T04:11:18.000Z,989.023
2018-01-04T04:21:18.000Z,989.329
2018-01-04T04:31:18.000Z,989.438
2018-01-04T04:41:18.000Z,989.583
2018-01-04T04:51:18.000Z,989.495
2018-01-04T05:01:18.000Z,989.471
2018-01-04T05:11:19.000Z,989.315
2018-01-04T05:21:19.000Z,989.184
2018-01-04T05:31:19.000Z,989.178
2018-01-04T05:41:19.000Z,989.152
2018-01-04T05:51:19.000Z,989.302
2018-01-04T06:01:19.000Z,989.231
2018-01-04T06:11:19.000Z,989.228
2018-01-04T06:21:19.000Z,989.356
2018-01-04T06:31:19.000Z,989.288
2018-01-04T06:41:19.000Z,989.445
2018-01-04T06:51:19.000Z,989.435
2018-01-04T07:01:19.000Z,989.351
2018-01-04T07:11:19.000Z,989.27
2018-01-04T07:21:19.000Z,989.217
2018-01-04T07:31:19.000Z,989.328
2018-01-04T07:41:19.000Z,989.365
2018-01-04T07:51:19.000Z,989.434
2018-01-04T08:01:19.000Z,989.453
2018-01-04T08:11:19.000Z,989.521
2018-01-04T08:21:19.000Z,989.397
2018-01-04T08:31:19.000Z,989.322
2018-01-04T08:41:19.000Z,989.208
2018-01-04T08:51:19.000Z,989.152
2018-01-04T09:01:19.000Z,989.212
2018-01-04T09:11:19.000Z,989.185
2018-01-04T09:21:19.000Z,989.031
2018-01-04T09:31:19.000Z,989.032
2018-01-04T09:41:19.000Z,988.901
2018-01-04T09:51:19.000Z,988.88
2018-01-04T10:01:20.000Z,988.883
2018-01-04T10:11:20.000Z,988.673
2018-01-04T10:21:19.000Z,988.397
2018-01-04T10:31:19.000Z,988.259
2018-01-04T10:51:19.000Z,988.109
2018-01-04T11:01:21.000Z,987.719
2018-01-04T11:11:19.000Z,987.481
2018-01-04T11:21:19.000Z,987.435
2018-01-04T11:31:19.000Z,987.253
2018-01-04T11:41:19.000Z,986.928
2018-01-04T11:51:19.000Z,986.854
2018-01-04T12:01:19.000Z,986.646
2018-01-04T12:11:19.000Z,986.37
2018-01-04T12:21:19.000Z,986.175
2018-01-04T12:31:19.000Z,985.971
2018-01-04T12:41:19.000Z,985.809
2018-01-04T12:51:19.000Z,985.607
2018-01-04T13:01:19.000Z,985.579
2018-01-04T13:11:19.000Z,985.326
2018-01-04T13:21:19.000Z,985.191
2018-01-04T13:31:19.000Z,984.881
2018-01-04T13:41:20.000Z,984.723
2018-01-04T13:51:20.000Z,984.535
2018-01-04T14:11:20.000Z,984.161
2018-01-04T14:21:20.000Z,983.926
2018-01-04T14:31:20.000Z,983.748
2018-01-04T14:41:21.000Z,983.529
2018-01-04T14:51:20.000Z,983.411
2018-01-04T15:01:20.000Z,983.292
2018-01-04T15:11:20.000Z,983.13
2018-01-04T15:21:20.000Z,982.923
2018-01-04T15:31:20.000Z,982.77
2018-01-04T15:41:20.000Z,982.667
2018-01-04T15:51:20.000Z,982.597
2018-01-04T16:01:20.000Z,982.422
2018-01-04T16:11:20.000Z,982.462
2018-01-04T16:21:20.000Z,982.442
2018-01-04T16:31:20.000Z,982.403
2018-01-04T16:41:20.000Z,982.345
2018-01-04T16:51:20.000Z,982.19
2018-01-04T17:01:20.000Z,982.099
2018-01-04T17:11:22.000Z,982.072
2018-01-04T17:21:20.000Z,981.724
2018-01-04T17:31:20.000Z,981.803
2018-01-04T17:41:20.000Z,981.691
2018-01-04T17:51:20.000Z,981.546
2018-01-04T18:01:20.000Z,981.469
2018-01-04T18:11:20.000Z,981.578
2018-01-04T18:21:20.000Z,981.188
2018-01-04T18:31:20.000Z,981.379
2018-01-04T18:41:20.000Z,981.342
2018-01-04T18:51:20.000Z,981.328
2018-01-04T19:01:20.000Z,981.451
2018-01-04T19:11:20.000Z,981.428
2018-01-04T19:21:20.000Z,981.556
2018-01-04T19:31:20.000Z,981.568
2018-01-04T19:41:20.000Z,981.699
2018-01-04T19:51:20.000Z,982.001
2018-01-04T20:01:20.000Z,982.408
2018-01-04T20:11:20.000Z,982.564
2018-01-04T20:21:20.000Z,982.333
2018-01-04T20:31:20.000Z,982.454
2018-01-04T20:41:20.000Z,982.797
2018-01-04T21:01:21.000Z,983.331
2018-01-04T21:11:20.000Z,983.357
2018-01-04T21:21:20.000Z,983.529
2018-01-04T21:31:20.000Z,983.623
2018-01-04T21:41:20.000Z,983.813
2018-01-04T21:51:20.000Z,984.076
2018-01-04T22:01:21.000Z,984.235
2018-01-04T22:11:21.000Z,984.289
2018-01-04T22:21:21.000Z,984.683
2018-01-04T22:31:22.000Z,984.62
2018-01-04T22:41:21.000Z,984.717
2018-01-04T22:51:21.000Z,985.051
2018-01-04T23:01:21.000Z,985.465
2018-01-04T23:11:21.000Z,985.341
2018-01-04T23:21:21.000Z,985.531
2018-01-04T23:31:21.000Z,985.696
2018-01-04T23:41:21.000Z,985.716
2018-01-04T23:51:21.000Z,985.651
